Miles City, MT (59301)

4:04 AM MST on February 09, 2016 (GMT -0700)
Wiley | | Change Station
CLOSE
Current Station
Airport
Location: Miles City,
Elevation: 2628 ft
Nearby Weather Stations

Elev 2628 ft 46.43 °N, 105.88 °W | Updated 11 minutes ago

Mostly Cloudy
Mostly Cloudy
31 °F
Feels Like 22 °F
N
12
Wind Variable Wind from West

Today
High -- | Low -- °F
--% Chance of Precip.
Yesterday
High -- | Low -- °F
Precip. -- in
Pressure 30.30 in
Visibility 10.0 miles
Clouds Mostly Cloudy 11000 ft
Windchill 22 °F
Dew Point 26 °F
Humidity 82%
Rainfall 0.00 in
Snow Depth Not available.
7:16 AM 5:19 PM
New Moon, 1% visible
METAR KMLS 091053Z AUTO 28010KT 10SM BKN110 M01/M03 A3024 RMK AO2 SLP258 T10061033
Pressure 30.30 in
Visibility 10.0 miles
Clouds Mostly Cloudy 11000 ft
Windchill 22 °F
Dew Point 26 °F
Humidity 82%
Rainfall 0.00 in
Snow Depth Not available.
7:16 AM 5:19 PM
New Moon, 1% visible
METAR KMLS 091053Z AUTO 28010KT 10SM BKN110 M01/M03 A3024 RMK AO2 SLP258 T10061033

10-Day Weather Forecast

Almanac

Astronomy

Feb. 09, 2016 Rise Set
Actual Time
Civil Twilight
Nautical Twilight
Astronomical Twilight
Moon
Length of Visible Light
Length of Day
Tomorrow will be .
, % of the Moon is Illuminated

Today's Extremes

State Highs State Lows

Community

WunderPhotos

Upload Photos

1,891,565 photos uploaded!

WunderBlog® & News

Nearby

Air Quality

  Air Quality AQ Index Pollutant
Not available.

Snow Depth

Station Depth Elevation

Earthquake Activity

City Distance Mag. Time & Date
Minimum magnitude displayed is 2.5.

Coastal Water Temperatures

Place Temperature

Stations

Nearby Weather Stations

Station Location Temp. Windchill Dew Point Humidity Wind Precip. Elev Updated Type
                   

Watches & Warnings

There are currently no watches in effect.